Historyczne dane pomiarowe

Dodano dane terminowe – wersja testowa.

Dane z okresu 1951-2019

Wersja bazy: 1.34 [2019-03-16, lista zmian], aktualizacja planowana na 2019-04-15

Dane meteo z obszaru Polski uzyskane na podstawie danych udostępnionych przez Instytut Meteorologii i Gospodarki Wodnej – Państwowy Instytut Badawczy.

 

Wybierz Datę:    

       

TemperaturaWilgotnośćWiatrCiśnienieOpadyŚniegCzas trwania zjawisk
 Stacja t tx tn tng RH VA  wxwx mslp ppp RRR   cm mm wxwxwxwxwxwxwx
1956-11-09 -2.2 -1.1 -3.9- 64.5- 6.7 1.0---- 0.0------------
1956-11-08 -0.7 2.6 -2.3- 60.3- 6.0 1.3---- 0.0------------
1956-11-07 -0.2 1.5 -3.0- 77.8- 8.0 3.7---- 0.3------------
1956-11-06 0.2 1.9 -0.6- 79.3- 4.3 5.0---- 0.0------------
1956-11-05 3.1 6.7 -1.1- 75.3- 7.3 8.0---- 4.8------------
1956-11-04 -0.6 1.7 -2.2- 66.8- 7.7 5.3---- 0.9------------
1956-11-03 0.0 3.6 -1.3- 73.3- 4.0 2.0---- 0.0------------
1956-11-02 0.2 3.6 -1.7- 72.5- 3.0 1.3---- 0.0------------
1956-11-01 1.3 1.7 -2.5- 79.0- 8.0 2.7---- 4.6------------
1956-10-31 -3.7 -0.4-10.1- 72.0- 5.0 2.7---- 0.0------------
1956-10-30 -2.9 -2.6 -3.7- 69.3- 5.7 2.3---- 0.0------------
1956-10-29 -1.6 1.0 -3.2- 94.5- 8.0 5.7---- 1.9------------
1956-10-28 3.6 6.4 0.4- 96.0- 8.0 4.3---- 5.2------------
1956-10-27 6.2 7.1 3.5- 92.8- 8.0 3.7---- 11.5------------
1956-10-26 6.3 7.3 5.0- 83.5- 7.3 1.3---- 0.0------------
1956-10-25 8.2 12.9 4.6- 88.0- 7.3 3.3---- 3.2------------
1956-10-24 11.0 12.5 8.8- 92.8- 7.7 5.3---- 0.2------------
1956-10-23 9.4 10.7 8.9- 80.8- 7.7 4.7---- 0.0------------
1956-10-22 10.4 12.6 9.1- 85.0- 6.3 8.3---- 0.0------------
1956-10-21 10.7 12.6 8.8- 90.3- 8.0 6.0---- 0.0------------
1956-10-20 9.0 10.5 7.2- 97.8- 7.3 1.3---- 2.3------------
1956-10-19 9.4 12.3 7.2- 96.5- 5.7 4.0---- 0.0------------
1956-10-18 11.5 13.1 9.4- 97.8- 7.0 4.3---- 1.0------------
1956-10-17 9.3 13.1 3.9- 78.8- 1.0 5.0---- 0.0------------
1956-10-16 6.2 11.8 1.9- 89.8- 2.7 1.0---- 0.0------------
1956-10-15 4.0 10.2 2.1- 92.0- 1.3 1.7---- 0.0------------
1956-10-14 4.9 9.4 1.9- 85.5- 2.3 5.3---- 5.7------------
1956-10-13 8.1 10.9 7.7- 89.3- 7.3 15.0---- 20.2------------
1956-10-12 9.0 10.6 8.4- 88.5- 7.7 6.0---- 0.0------------
1956-10-11 8.8 10.2 5.7- 93.5- 7.0 2.7---- 0.0------------
1956-10-10 5.1 8.1 -0.6- 81.5- 4.3 2.0---- 0.0------------
1956-10-09 5.8 10.2 4.3- 92.8- 6.7 3.7---- 0.7------------
1956-10-08 4.9 6.8 3.6- 91.3- 8.0 1.7---- 0.8------------
1956-10-07 5.4 7.9 2.9- 93.5- 8.0 4.7---- 11.6------------
1956-10-06 5.8 9.4 3.5- 89.0- 7.3 1.7---- 6.1------------
1956-10-05 7.6 9.9 6.8- 92.3- 5.3 5.3---- 0.0------------
1956-10-04 8.9 13.0 6.9- 96.8- 4.3 6.3---- 0.0------------
1956-10-03 9.8 14.1 5.8- 97.8- 8.0 8.7---- 3.1------------
1956-10-02 14.2 19.5 11.4- 93.3- 7.3 7.0---- 29.7------------
1956-10-01 12.4 15.2 9.7- 92.3- 5.0 5.0---- 5.4------------
1956-09-30 12.3 17.7 9.6- 81.3- 2.3 5.3---- 0.0------------
1956-09-29 13.5 16.4 12.0- 71.3- 4.7 5.7---- 0.0------------
1956-09-28 13.8 16.8 12.5- 83.3- 6.0 10.3---- 1.0------------
1956-09-27 15.7 21.1 10.0- 80.3- 3.7 4.3---- 0.0------------
1956-09-26 12.8 21.0 7.3- 70.8- 0.0 5.7---- 0.0------------
1956-09-25 11.8 16.8 4.3- 69.5- 0.0 6.0---- 0.0------------
1956-09-24 9.0 14.2 4.7- 60.3- 0.0 3.7---- 0.0------------
1956-09-23 9.1 14.9 3.9- 85.8- 2.3 1.7---- 0.0------------
1956-09-22 11.3 16.6 5.3- 91.8- 4.0 1.0---- 0.0------------
1956-09-21 10.2 17.1 4.3- 87.0- 1.0 0.7---- 0.0------------
1956-09-20 8.7 14.9 5.7- 87.3- 5.3 1.7---- 0.0------------
1956-09-19 8.9 14.3 3.3- 85.8- 4.0 1.7---- 0.0------------
1956-09-18 8.3 12.8 5.3- 82.5- 4.3 2.3---- 2.8------------
1956-09-17 8.6 12.4 5.4- 81.8- 2.3 3.7---- 2.7------------
1956-09-16 9.0 12.7 7.3- 89.0- 6.0 8.0---- 1.7------------
1956-09-15 10.8 14.0 7.6- 81.3- 3.7 5.7---- 0.0------------
1956-09-14 10.7 16.3 4.5- 90.5- 1.7 1.7---- 1.7------------
1956-09-13 7.2 11.0 4.4- 99.8- 5.0 3.0---- 10.4------------
1956-09-12 9.3 13.7 6.9- 90.5- 6.3 5.7---- 6.7------------
1956-09-11 13.0 18.2 10.3- 80.8- 7.0 0.7---- 12.7------------
271.9 ms

 

Źródłem pochodzenia danych jest Instytut Meteorologii i Gospodarki Wodnej – Państwowy Instytut Badawczy. Dane Instytutu Meteorologii i Gospodarki Wodnej – Państwowego Instytutu Badawczego zostały przetworzone.

Dane źródłowe można odnaleźć na stronie https://dane.imgw.pl